createdAt,value
2023-02-08T00:00:10.885Z,26.95
2023-02-08T00:02:13.013Z,27.13
2023-02-08T00:04:15.064Z,25.55
2023-02-08T00:06:17.381Z,29.58
2023-02-08T00:08:19.449Z,29.27
2023-02-08T00:10:21.594Z,31.55
2023-02-08T00:12:23.937Z,36.85
2023-02-08T00:14:26.004Z,27.15
2023-02-08T00:16:28.061Z,31.02
2023-02-08T00:18:30.265Z,32.20
2023-02-08T00:20:32.415Z,26.52
2023-02-08T00:22:34.557Z,25.85
2023-02-08T00:24:36.521Z,30.08
2023-02-08T00:26:38.664Z,28.98
2023-02-08T00:28:40.725Z,32.30
2023-02-08T00:30:43.639Z,33.03
2023-02-08T00:32:45.689Z,36.00
2023-02-08T00:34:47.775Z,23.95
2023-02-08T00:36:49.812Z,26.42
2023-02-08T00:38:51.924Z,33.00
2023-02-08T00:40:54.002Z,30.75
2023-02-08T00:42:56.093Z,25.27
2023-02-08T00:44:58.625Z,33.45
2023-02-08T00:47:00.668Z,31.83
2023-02-08T00:49:02.905Z,31.85
2023-02-08T00:51:08.945Z,28.45
2023-02-08T00:53:10.981Z,33.00
2023-02-08T00:55:12.962Z,30.33
2023-02-08T00:57:15.462Z,29.88
2023-02-08T00:59:17.482Z,30.83
2023-02-08T01:01:19.582Z,28.65
2023-02-08T01:03:23.032Z,30.77
2023-02-08T01:05:25.025Z,29.00
2023-02-08T01:07:27.030Z,33.33
2023-02-08T01:09:29.025Z,34.22
2023-02-08T01:11:31.108Z,29.77
2023-02-08T01:13:33.127Z,24.80
2023-02-08T01:15:35.159Z,25.15
2023-02-08T01:17:37.194Z,25.85
2023-02-08T01:19:41.118Z,29.42
2023-02-08T01:21:44.397Z,30.25
2023-02-08T01:23:46.596Z,29.63
2023-02-08T01:25:48.620Z,29.02
2023-02-08T01:27:50.633Z,25.45
2023-02-08T01:29:52.959Z,30.10
2023-02-08T01:31:54.972Z,35.03
2023-02-08T01:33:58.399Z,30.55
2023-02-08T01:36:00.436Z,33.22
2023-02-08T01:38:02.467Z,28.65
2023-02-08T01:40:05.024Z,25.45
2023-02-08T01:42:07.025Z,34.95
2023-02-08T01:44:12.528Z,33.55
2023-02-08T01:46:14.435Z,33.53
2023-02-08T01:48:23.356Z,28.80
2023-02-08T01:50:32.254Z,35.45
2023-02-08T01:52:34.351Z,30.90
2023-02-08T01:54:43.359Z,32.47
2023-02-08T01:56:47.346Z,29.48
2023-02-08T01:58:55.012Z,34.85
2023-02-08T02:00:57.010Z,35.05
2023-02-08T02:03:00.984Z,32.47
2023-02-08T02:05:03.473Z,36.65
2023-02-08T02:07:06.418Z,32.75
2023-02-08T02:09:17.992Z,35.15
2023-02-08T02:11:20.714Z,36.85
2023-02-08T02:13:25.146Z,37.65
2023-02-08T02:15:27.168Z,32.88
2023-02-08T02:17:30.304Z,36.80
2023-02-08T02:19:35.734Z,36.75
2023-02-08T02:21:43.966Z,44.60
2023-02-08T02:23:50.399Z,34.03
2023-02-08T02:25:55.337Z,38.15
2023-02-08T02:28:03.595Z,50.45
2023-02-08T02:30:12.734Z,33.65
2023-02-08T02:32:24.183Z,43.70
2023-02-08T02:34:32.266Z,33.60
2023-02-08T02:36:40.504Z,47.28
2023-02-08T02:38:49.361Z,37.58
2023-02-08T02:41:06.474Z,38.38
2023-02-08T02:43:16.253Z,43.58
2023-02-08T02:45:27.308Z,37.42
2023-02-08T02:47:37.302Z,36.83
2023-02-08T02:49:51.523Z,44.50
2023-02-08T02:52:02.220Z,43.20
2023-02-08T02:54:11.071Z,44.00
2023-02-08T02:56:18.482Z,44.70
2023-02-08T02:58:24.048Z,45.33
2023-02-08T03:00:28.938Z,39.65
2023-02-08T03:02:30.904Z,36.65
2023-02-08T03:04:33.667Z,39.33
2023-02-08T03:06:46.874Z,45.00
2023-02-08T03:08:55.615Z,41.25
2023-02-08T03:11:00.974Z,46.47
2023-02-08T03:13:15.880Z,46.85
2023-02-08T03:15:22.481Z,42.38
2023-02-08T03:17:34.234Z,46.47
2023-02-08T03:19:43.921Z,38.85
2023-02-08T03:21:56.938Z,50.92
2023-02-08T03:24:05.092Z,46.40
2023-02-08T03:26:09.918Z,41.17
2023-02-08T03:28:20.742Z,41.60
2023-02-08T03:30:29.127Z,44.97
2023-02-08T03:32:40.638Z,44.25
2023-02-08T03:34:49.395Z,43.08
2023-02-08T03:36:58.385Z,37.67
2023-02-08T03:39:03.510Z,38.65
2023-02-08T03:41:10.344Z,48.90
2023-02-08T03:43:18.253Z,42.67
2023-02-08T03:45:27.208Z,40.90
2023-02-08T03:47:35.408Z,40.90
2023-02-08T03:49:39.521Z,41.58
2023-02-08T03:51:43.847Z,40.35
2023-02-08T03:53:46.887Z,41.22
2023-02-08T03:55:53.355Z,37.25
2023-02-08T03:57:59.934Z,44.33
2023-02-08T04:00:07.301Z,46.90
2023-02-08T04:02:14.268Z,39.63
2023-02-08T04:04:18.970Z,41.95
2023-02-08T04:06:22.169Z,47.00
2023-02-08T04:08:26.243Z,39.10
2023-02-08T04:10:28.190Z,50.90
2023-02-08T04:12:30.807Z,41.05
2023-02-08T04:14:32.736Z,37.22
2023-02-08T04:16:34.720Z,41.95
2023-02-08T04:18:36.676Z,36.08
2023-02-08T04:20:39.165Z,40.05
2023-02-08T04:22:41.373Z,40.88
2023-02-08T04:24:43.376Z,41.03
2023-02-08T04:26:45.396Z,42.42
2023-02-08T04:28:47.444Z,41.13
2023-02-08T04:30:49.771Z,41.85
2023-02-08T04:32:51.719Z,49.50
2023-02-08T04:34:53.734Z,45.53
2023-02-08T04:36:55.736Z,35.25
2023-02-08T04:38:58.824Z,38.05
2023-02-08T04:41:00.852Z,37.95
2023-02-08T04:43:02.887Z,45.10
2023-02-08T04:45:05.347Z,43.00
2023-02-08T04:47:07.296Z,43.53
2023-02-08T04:49:09.262Z,40.33
2023-02-08T04:51:11.279Z,41.78
2023-02-08T04:53:13.251Z,49.33
2023-02-08T04:55:15.359Z,47.17
2023-02-08T04:57:17.341Z,40.88
2023-02-08T04:59:20.011Z,40.25
2023-02-08T05:01:22.019Z,43.30
2023-02-08T05:03:24.012Z,46.15
2023-02-08T05:05:27.838Z,56.35
2023-02-08T05:07:29.756Z,50.95
2023-02-08T05:09:31.797Z,39.08
2023-02-08T05:11:34.225Z,48.00
2023-02-08T05:13:36.171Z,44.17
2023-02-08T05:15:38.108Z,40.75
2023-02-08T05:17:40.412Z,42.83
2023-02-08T05:19:42.478Z,44.00
2023-02-08T05:21:44.427Z,44.38
2023-02-08T05:23:46.966Z,45.17
2023-02-08T05:25:49.033Z,49.95
2023-02-08T05:27:51.132Z,35.17
2023-02-08T05:29:53.092Z,42.92
2023-02-08T05:31:55.157Z,44.75
2023-02-08T05:33:57.112Z,38.65
2023-02-08T05:35:59.111Z,43.28
2023-02-08T05:38:01.052Z,44.65
2023-02-08T05:40:03.291Z,38.35
2023-02-08T05:42:05.486Z,38.15
2023-02-08T05:44:07.619Z,35.55
2023-02-08T05:46:09.832Z,39.05
2023-02-08T05:48:11.734Z,40.88
2023-02-08T05:50:14.872Z,37.17
2023-02-08T05:52:16.834Z,38.85
2023-02-08T05:54:18.875Z,46.20
2023-02-08T05:56:21.421Z,39.65
2023-02-08T05:58:23.438Z,33.40
2023-02-08T06:00:25.548Z,32.90
2023-02-08T06:02:27.576Z,32.80
2023-02-08T06:04:29.634Z,33.80
2023-02-08T06:06:31.663Z,35.30
2023-02-08T06:08:33.995Z,37.03
2023-02-08T06:10:36.328Z,31.83
2023-02-08T06:12:38.194Z,32.42
2023-02-08T06:14:40.196Z,28.27
2023-02-08T06:16:42.372Z,35.42
2023-02-08T06:18:44.402Z,32.53
2023-02-08T06:20:46.295Z,34.25
2023-02-08T06:22:49.620Z,30.92
2023-02-08T06:24:51.622Z,29.83
2023-02-08T06:26:53.597Z,38.72
2023-02-08T06:28:55.668Z,32.38
2023-02-08T06:30:57.656Z,31.17
2023-02-08T06:32:59.621Z,34.83
2023-02-08T06:35:01.591Z,31.25
2023-02-08T06:37:05.654Z,30.00
2023-02-08T06:39:07.610Z,33.30
2023-02-08T06:41:09.792Z,33.72
2023-02-08T06:43:12.087Z,33.67
2023-02-08T06:45:14.239Z,35.90
2023-02-08T06:47:16.573Z,34.22
2023-02-08T06:49:19.004Z,32.72
2023-02-08T06:51:20.988Z,31.45
2023-02-08T06:53:23.152Z,28.90
2023-02-08T06:55:25.196Z,30.38
2023-02-08T06:57:27.133Z,31.85
2023-02-08T06:59:29.214Z,35.50
2023-02-08T07:01:31.236Z,35.83
2023-02-08T07:03:33.282Z,32.03
2023-02-08T07:05:36.136Z,35.85
2023-02-08T07:07:38.084Z,35.30
2023-02-08T07:09:40.391Z,30.35
2023-02-08T07:11:42.400Z,36.30
2023-02-08T07:13:48.278Z,35.50
2023-02-08T07:15:50.390Z,33.58
2023-02-08T07:17:52.485Z,35.80
2023-02-08T07:19:54.664Z,39.50
2023-02-08T07:21:57.415Z,41.40
2023-02-08T07:23:59.445Z,37.80
2023-02-08T07:26:04.887Z,38.10
2023-02-08T07:28:07.155Z,39.53
2023-02-08T07:30:10.171Z,37.35
2023-02-08T07:32:12.456Z,35.53
2023-02-08T07:34:14.653Z,34.53
2023-02-08T07:36:16.831Z,35.30
2023-02-08T07:38:20.707Z,32.28
2023-02-08T07:40:23.181Z,31.77
2023-02-08T07:42:26.556Z,33.17
2023-02-08T07:44:28.725Z,33.65
2023-02-08T07:46:31.076Z,33.13
2023-02-08T07:48:33.406Z,35.33
2023-02-08T07:50:35.661Z,33.72
2023-02-08T07:52:37.788Z,33.38
2023-02-08T07:54:39.933Z,34.28
2023-02-08T07:56:42.035Z,27.77
2023-02-08T07:58:44.341Z,28.83
2023-02-08T08:00:46.430Z,31.02
2023-02-08T08:02:51.161Z,33.00
2023-02-08T08:04:54.759Z,29.60
2023-02-08T08:06:57.088Z,32.00
2023-02-08T08:08:59.239Z,27.10
2023-02-08T08:11:03.723Z,24.60
2023-02-08T08:13:06.487Z,32.28
2023-02-08T08:15:09.057Z,28.73
2023-02-08T08:17:11.317Z,30.10
2023-02-08T08:19:13.487Z,28.17
2023-02-08T08:21:16.996Z,24.25
2023-02-08T08:23:19.922Z,28.50
2023-02-08T08:25:22.675Z,26.38
2023-02-08T08:27:25.093Z,26.10
2023-02-08T08:29:27.507Z,30.25
2023-02-08T08:31:31.159Z,27.85
2023-02-08T08:33:33.979Z,30.50
2023-02-08T08:35:36.813Z,29.80
2023-02-08T08:37:39.732Z,29.67
2023-02-08T08:39:42.566Z,38.42
2023-02-08T08:41:45.103Z,29.48
2023-02-08T08:43:47.673Z,30.95
2023-02-08T08:45:51.597Z,30.30
2023-02-08T08:47:55.428Z,29.73
2023-02-08T08:49:57.897Z,37.15
2023-02-08T08:52:00.435Z,29.23
2023-02-08T08:54:03.677Z,33.20
2023-02-08T08:56:06.685Z,32.83
2023-02-08T08:58:09.140Z,37.15
2023-02-08T09:00:12.936Z,33.40
2023-02-08T09:02:15.744Z,34.35
2023-02-08T09:04:18.617Z,35.85
2023-02-08T09:06:20.840Z,36.22
2023-02-08T09:08:23.500Z,33.35
2023-02-08T09:10:25.900Z,33.83
2023-02-08T09:12:29.025Z,37.72
2023-02-08T09:14:31.580Z,35.92
2023-02-08T09:16:33.980Z,34.95
2023-02-08T09:18:36.876Z,35.00
2023-02-08T09:20:39.729Z,35.70
2023-02-08T09:22:42.106Z,29.25
2023-02-08T09:24:44.240Z,33.67
2023-02-08T09:26:46.613Z,27.00
2023-02-08T09:28:49.178Z,29.15
2023-02-08T09:30:51.416Z,33.15
2023-02-08T09:32:53.955Z,31.35
2023-02-08T09:34:58.058Z,29.90
2023-02-08T09:37:00.209Z,28.88
2023-02-08T09:39:07.744Z,28.75
2023-02-08T09:41:16.400Z,33.40
2023-02-08T09:43:32.217Z,33.50
2023-02-08T09:45:47.891Z,35.72
2023-02-08T09:47:59.645Z,29.20
2023-02-08T09:50:05.251Z,36.15
2023-02-08T09:52:13.861Z,31.63
2023-02-08T09:54:19.972Z,30.20
2023-02-08T09:56:29.804Z,31.55
2023-02-08T09:58:38.392Z,25.98
2023-02-08T10:00:44.985Z,32.33
2023-02-08T10:02:49.193Z,26.75
2023-02-08T10:04:54.939Z,33.92
2023-02-08T10:06:57.408Z,30.48
2023-02-08T10:09:04.859Z,29.52
2023-02-08T10:11:13.175Z,27.65
2023-02-08T10:13:25.688Z,31.05
2023-02-08T10:15:42.290Z,27.02
2023-02-08T10:17:48.281Z,29.92
2023-02-08T10:19:54.988Z,29.20
2023-02-08T10:22:03.367Z,27.65
2023-02-08T10:24:20.250Z,26.58
2023-02-08T10:26:25.313Z,30.58
2023-02-08T10:28:33.861Z,32.83
2023-02-08T10:30:44.986Z,29.60
2023-02-08T10:32:51.068Z,36.40
2023-02-08T10:34:59.352Z,32.83
2023-02-08T10:37:06.489Z,25.92
2023-02-08T10:39:14.852Z,30.90
2023-02-08T10:41:23.948Z,28.83
2023-02-08T10:43:33.023Z,28.80
2023-02-08T10:45:42.220Z,28.08
2023-02-08T10:47:49.483Z,28.55
2023-02-08T10:49:58.795Z,30.23
2023-02-08T10:52:01.255Z,28.42
2023-02-08T10:54:03.634Z,29.42
2023-02-08T10:56:07.254Z,28.42
2023-02-08T10:58:16.982Z,24.73
2023-02-08T11:00:23.556Z,31.33
2023-02-08T11:02:31.889Z,28.00
2023-02-08T11:04:34.155Z,28.08
2023-02-08T11:06:37.842Z,26.10
2023-02-08T11:08:55.566Z,25.52
2023-02-08T11:11:01.393Z,31.38
2023-02-08T11:13:16.075Z,23.65
2023-02-08T11:15:23.552Z,24.85
2023-02-08T11:17:31.735Z,30.23
2023-02-08T11:19:42.983Z,30.40
2023-02-08T11:21:50.916Z,28.33
2023-02-08T11:23:55.814Z,29.73
2023-02-08T11:26:04.252Z,28.67
2023-02-08T11:28:25.829Z,33.80
2023-02-08T11:30:28.020Z,32.50
2023-02-08T11:32:30.331Z,33.50
2023-02-08T11:34:35.571Z,28.58
2023-02-08T11:36:47.286Z,31.58
2023-02-08T11:38:49.570Z,26.13
2023-02-08T11:40:53.776Z,28.88
2023-02-08T11:42:57.032Z,30.58
2023-02-08T11:45:00.292Z,29.67
2023-02-08T11:47:06.215Z,28.52
2023-02-08T11:49:23.657Z,27.58
2023-02-08T11:51:30.419Z,26.77
2023-02-08T11:53:37.909Z,23.05
2023-02-08T11:55:41.085Z,21.90
2023-02-08T11:57:49.644Z,23.67
2023-02-08T12:00:10.216Z,26.08
2023-02-08T12:02:18.759Z,19.95
2023-02-08T12:04:22.778Z,20.65
2023-02-08T12:06:31.240Z,22.85
2023-02-08T12:08:39.773Z,21.38
2023-02-08T12:10:46.451Z,24.85
2023-02-08T12:12:53.576Z,27.60
2023-02-08T12:14:59.307Z,20.55
2023-02-08T12:17:12.349Z,22.60
2023-02-08T12:19:27.612Z,19.15
2023-02-08T12:21:36.229Z,24.20
2023-02-08T12:23:42.917Z,25.27
2023-02-08T12:25:49.901Z,25.70
2023-02-08T12:27:56.926Z,25.83
2023-02-08T12:30:03.957Z,23.40
2023-02-08T12:32:24.919Z,29.48
2023-02-08T12:36:33.233Z,28.75
2023-02-08T12:38:44.728Z,26.23
2023-02-08T12:40:53.324Z,24.52
2023-02-08T12:43:03.990Z,24.05
2023-02-08T12:45:17.828Z,25.85
2023-02-08T12:47:26.261Z,26.00
2023-02-08T12:49:47.210Z,26.65
2023-02-08T12:53:58.063Z,30.55
2023-02-08T12:56:07.144Z,29.88
2023-02-08T12:58:12.724Z,28.13
2023-02-08T13:00:21.204Z,27.27
2023-02-08T13:02:29.835Z,28.63
2023-02-08T13:04:38.769Z,30.42
2023-02-08T13:06:45.249Z,30.77
2023-02-08T13:08:52.701Z,29.42
2023-02-08T13:11:17.864Z,33.67
2023-02-08T13:13:26.805Z,32.35
2023-02-08T13:15:33.633Z,29.98
2023-02-08T13:17:39.751Z,29.83
2023-02-08T13:19:59.790Z,31.65
2023-02-08T13:22:05.929Z,33.53
2023-02-08T13:24:23.408Z,32.13
2023-02-08T13:26:31.778Z,28.02
2023-02-08T13:28:34.735Z,28.60
2023-02-08T13:30:40.286Z,24.30
2023-02-08T13:32:46.989Z,20.35
2023-02-08T13:34:55.604Z,21.10
2023-02-08T13:37:02.195Z,27.80
2023-02-08T13:39:08.348Z,16.77
2023-02-08T13:41:16.613Z,18.63
2023-02-08T13:43:34.734Z,22.52
2023-02-08T13:45:44.449Z,18.10
2023-02-08T13:47:49.569Z,17.95
2023-02-08T13:49:54.162Z,18.35
2023-02-08T13:51:56.402Z,16.73
2023-02-08T13:54:00.755Z,16.45
2023-02-08T13:56:06.022Z,20.98
2023-02-08T13:58:14.644Z,18.80
2023-02-08T14:00:25.192Z,16.40
2023-02-08T14:02:28.658Z,15.68
2023-02-08T14:04:35.099Z,13.18
2023-02-08T14:06:41.413Z,15.60
2023-02-08T14:08:52.370Z,16.70
2023-02-08T14:11:01.275Z,12.98
2023-02-08T14:13:14.276Z,13.38
2023-02-08T14:15:17.172Z,16.23
2023-02-08T14:17:27.815Z,15.32
2023-02-08T14:21:38.612Z,12.90
2023-02-08T14:23:41.204Z,15.75
2023-02-08T14:25:47.604Z,13.05
2023-02-08T14:27:54.839Z,14.70
2023-02-08T14:30:02.872Z,14.77
2023-02-08T14:32:05.940Z,16.95
2023-02-08T14:34:22.787Z,14.45
2023-02-08T14:36:29.966Z,15.93
2023-02-08T14:38:38.364Z,21.08
2023-02-08T14:40:49.091Z,14.90
2023-02-08T14:42:57.616Z,17.38
2023-02-08T14:45:02.082Z,18.45
2023-02-08T14:47:10.690Z,17.90
2023-02-08T14:49:16.194Z,23.38
2023-02-08T14:51:25.342Z,23.10
2023-02-08T14:53:34.874Z,26.85
2023-02-08T14:55:46.045Z,24.58
2023-02-08T14:57:49.333Z,26.33
2023-02-08T14:59:54.357Z,28.33
2023-02-08T15:02:00.864Z,27.20
2023-02-08T15:04:04.079Z,24.85
2023-02-08T15:06:12.640Z,25.15
2023-02-08T15:08:21.896Z,24.35
2023-02-08T15:10:26.376Z,24.92
2023-02-08T15:12:32.786Z,30.58
2023-02-08T15:14:37.135Z,23.77
2023-02-08T15:16:44.124Z,24.15
2023-02-08T15:18:49.449Z,28.27
2023-02-08T15:20:59.655Z,28.50
2023-02-08T15:23:06.687Z,27.33
2023-02-08T15:25:22.302Z,27.27
2023-02-08T15:27:27.732Z,26.58
2023-02-08T15:29:43.986Z,22.70
2023-02-08T15:31:47.845Z,21.88
2023-02-08T15:33:52.857Z,24.75
2023-02-08T15:36:00.488Z,22.58
2023-02-08T15:38:05.917Z,19.77
2023-02-08T15:40:22.923Z,21.15
2023-02-08T15:42:29.339Z,20.85
2023-02-08T15:44:35.183Z,21.25
2023-02-08T15:46:39.212Z,28.50
2023-02-08T15:48:45.028Z,19.20
2023-02-08T15:50:47.686Z,23.52
2023-02-08T15:52:58.177Z,25.95
2023-02-08T15:55:00.618Z,24.48
2023-02-08T15:57:06.947Z,21.90
2023-02-08T15:59:21.348Z,23.95
2023-02-08T16:01:25.741Z,21.73
2023-02-08T16:03:30.030Z,24.15
2023-02-08T16:05:34.061Z,28.10
2023-02-08T16:07:40.153Z,21.08
2023-02-08T16:09:48.047Z,24.98
2023-02-08T16:11:50.933Z,23.48
2023-02-08T16:13:57.805Z,23.63
2023-02-08T16:16:16.985Z,24.30
2023-02-08T16:18:30.287Z,24.88
2023-02-08T16:20:35.549Z,25.73
2023-02-08T16:22:38.221Z,25.23
2023-02-08T16:24:40.757Z,24.63
2023-02-08T16:26:45.365Z,24.25
2023-02-08T16:28:53.991Z,27.65
2023-02-08T16:30:58.740Z,23.38
2023-02-08T16:33:07.509Z,27.10
2023-02-08T16:35:14.064Z,26.30
2023-02-08T16:37:22.960Z,23.48
2023-02-08T16:39:31.663Z,22.23
2023-02-08T16:42:00.889Z,22.40
2023-02-08T16:44:12.396Z,25.38
2023-02-08T16:46:17.239Z,24.35
2023-02-08T16:48:27.759Z,23.95
2023-02-08T16:50:31.831Z,20.02
2023-02-08T16:52:35.094Z,23.75
2023-02-08T16:54:37.739Z,30.38
2023-02-08T16:56:42.139Z,22.38
2023-02-08T16:58:44.788Z,24.30
2023-02-08T17:00:47.416Z,24.30
2023-02-08T17:02:51.207Z,23.95
2023-02-08T17:04:55.177Z,19.83
2023-02-08T17:06:57.656Z,23.17
2023-02-08T17:09:01.672Z,20.40
2023-02-08T17:11:04.316Z,22.75
2023-02-08T17:13:19.937Z,17.17
2023-02-08T17:15:25.273Z,19.17
2023-02-08T17:17:28.239Z,24.73
2023-02-08T17:19:30.870Z,21.92
2023-02-08T17:21:34.162Z,19.17
2023-02-08T17:23:36.871Z,22.10
2023-02-08T17:25:39.895Z,17.80
2023-02-08T17:27:42.469Z,23.58
2023-02-08T17:29:45.206Z,22.40
2023-02-08T17:31:48.692Z,18.13
2023-02-08T17:33:51.662Z,22.83
2023-02-08T17:35:54.377Z,24.65
2023-02-08T17:37:58.878Z,21.52
2023-02-08T17:40:01.356Z,20.40
2023-02-08T17:42:04.054Z,24.83
2023-02-08T17:44:07.493Z,21.23
2023-02-08T17:46:16.266Z,22.92
2023-02-08T17:48:19.743Z,22.10
2023-02-08T17:50:23.926Z,19.98
2023-02-08T17:52:26.560Z,19.80
2023-02-08T17:54:29.117Z,20.17
2023-02-08T17:56:35.756Z,22.42
2023-02-08T17:58:39.204Z,23.02
2023-02-08T18:00:42.433Z,19.55
2023-02-08T18:02:47.768Z,24.98
2023-02-08T18:04:50.389Z,23.63
2023-02-08T18:06:53.047Z,25.30
2023-02-08T18:08:56.157Z,24.27
2023-02-08T18:11:04.332Z,21.88
2023-02-08T18:13:07.220Z,23.10
2023-02-08T18:15:13.991Z,28.85
2023-02-08T18:17:16.538Z,23.55
2023-02-08T18:19:19.852Z,20.90
2023-02-08T18:21:26.021Z,24.85
2023-02-08T18:23:29.096Z,24.85
2023-02-08T18:25:32.391Z,22.20
2023-02-08T18:27:34.947Z,23.15
2023-02-08T18:29:37.591Z,22.20
2023-02-08T18:31:41.571Z,31.33
2023-02-08T18:33:44.787Z,23.48
2023-02-08T18:35:49.579Z,23.52
2023-02-08T18:37:53.778Z,25.02
2023-02-08T18:39:56.219Z,27.83
2023-02-08T18:41:58.796Z,26.38
2023-02-08T18:44:02.788Z,26.35
2023-02-08T18:46:10.222Z,25.13
2023-02-08T18:48:13.658Z,24.85
2023-02-08T18:50:16.461Z,23.98
2023-02-08T18:52:18.780Z,27.65
2023-02-08T18:54:21.989Z,30.40
2023-02-08T18:56:26.837Z,26.70
2023-02-08T18:58:29.824Z,30.33
2023-02-08T19:00:32.414Z,31.65
2023-02-08T19:02:35.926Z,26.50
2023-02-08T19:04:39.894Z,26.58
2023-02-08T19:06:42.373Z,27.60
2023-02-08T19:08:45.937Z,33.03
2023-02-08T19:10:48.209Z,25.77
2023-02-08T19:12:50.943Z,26.77
2023-02-08T19:14:53.196Z,29.95
2023-02-08T19:16:56.295Z,28.25
2023-02-08T19:19:01.335Z,31.40
2023-02-08T19:21:06.366Z,27.77
2023-02-08T19:23:08.854Z,28.27
2023-02-08T19:25:11.326Z,27.75
2023-02-08T19:27:13.901Z,31.90
2023-02-08T19:29:22.243Z,32.15
2023-02-08T19:31:26.458Z,25.27
2023-02-08T19:33:28.991Z,35.10
2023-02-08T19:35:31.334Z,28.83
2023-02-08T19:37:33.733Z,26.95
2023-02-08T19:39:35.961Z,30.05
2023-02-08T19:41:39.680Z,27.80
2023-02-08T19:43:41.996Z,30.38
2023-02-08T19:45:45.319Z,32.38
2023-02-08T19:47:51.672Z,29.25
2023-02-08T19:49:55.234Z,31.42
2023-02-08T19:51:57.645Z,25.70
2023-02-08T19:54:01.164Z,25.00
2023-02-08T19:56:06.781Z,27.05
2023-02-08T19:58:10.811Z,28.60
2023-02-08T20:00:23.493Z,27.45
2023-02-08T20:02:27.817Z,26.55
2023-02-08T20:04:30.367Z,27.05
2023-02-08T20:06:36.063Z,25.60
2023-02-08T20:08:38.908Z,25.45
2023-02-08T20:10:42.664Z,29.25
2023-02-08T20:12:45.384Z,25.50
2023-02-08T20:14:48.632Z,25.67
2023-02-08T20:16:51.707Z,27.98
2023-02-08T20:18:56.354Z,26.77
2023-02-08T20:21:02.323Z,26.08
2023-02-08T20:23:14.091Z,26.73
2023-02-08T20:25:20.746Z,24.38
2023-02-08T20:27:23.883Z,29.35
2023-02-08T20:29:28.224Z,26.65
2023-02-08T20:31:33.908Z,27.73
2023-02-08T20:33:36.337Z,29.55
2023-02-08T20:35:38.660Z,28.85
2023-02-08T20:37:41.870Z,27.23
2023-02-08T20:39:44.076Z,25.38
2023-02-08T20:41:47.647Z,25.98
2023-02-08T20:43:50.348Z,27.23
2023-02-08T20:45:52.601Z,22.60
2023-02-08T20:47:55.089Z,25.55
2023-02-08T20:49:58.436Z,27.50
2023-02-08T20:52:00.902Z,24.77
2023-02-08T20:54:04.493Z,29.02
2023-02-08T20:56:09.691Z,24.48
2023-02-08T20:58:11.750Z,25.42
2023-02-08T21:00:14.774Z,26.85
2023-02-08T21:02:24.589Z,25.52
2023-02-08T21:04:27.467Z,28.98
2023-02-08T21:06:34.121Z,29.48
2023-02-08T21:08:36.375Z,24.33
2023-02-08T21:10:38.665Z,28.13
2023-02-08T21:12:40.839Z,24.80
2023-02-08T21:14:44.749Z,26.58
2023-02-08T21:16:49.053Z,28.77
2023-02-08T21:18:51.210Z,30.90
2023-02-08T21:20:54.067Z,27.70
2023-02-08T21:22:56.540Z,25.83
2023-02-08T21:24:58.701Z,26.85
2023-02-08T21:27:01.610Z,24.35
2023-02-08T21:29:06.615Z,22.35
2023-02-08T21:31:13.270Z,24.23
2023-02-08T21:33:16.504Z,24.08
2023-02-08T21:35:21.003Z,23.38
2023-02-08T21:37:24.552Z,25.73
2023-02-08T21:39:27.175Z,24.88
2023-02-08T21:41:32.797Z,24.00
2023-02-08T21:43:36.622Z,25.23
2023-02-08T21:45:39.590Z,27.67
2023-02-08T21:47:42.286Z,23.70
2023-02-08T21:49:47.617Z,33.17
2023-02-08T21:51:52.889Z,23.35
2023-02-08T21:53:58.209Z,24.05
2023-02-08T21:56:00.449Z,28.48
2023-02-08T21:58:02.769Z,26.13
2023-02-08T22:00:08.730Z,27.95
2023-02-08T22:02:16.425Z,26.98
2023-02-08T22:04:18.470Z,32.28
2023-02-08T22:06:20.540Z,30.48
2023-02-08T22:08:22.696Z,24.77
2023-02-08T22:10:27.500Z,25.73
2023-02-08T22:12:29.566Z,25.98
2023-02-08T22:14:35.284Z,28.83
2023-02-08T22:16:37.460Z,25.80
2023-02-08T22:18:41.542Z,28.55
2023-02-08T22:20:45.126Z,29.15
2023-02-08T22:22:47.396Z,24.55
2023-02-08T22:24:49.435Z,30.35
2023-02-08T22:26:51.402Z,27.10
2023-02-08T22:28:54.053Z,23.95
2023-02-08T22:30:56.157Z,27.67
2023-02-08T22:32:58.213Z,25.50
2023-02-08T22:35:00.310Z,26.38
2023-02-08T22:37:04.362Z,29.05
2023-02-08T22:39:07.249Z,28.50
2023-02-08T22:41:11.271Z,27.98
2023-02-08T22:43:13.339Z,26.98
2023-02-08T22:45:15.384Z,24.52
2023-02-08T22:47:17.425Z,28.95
2023-02-08T22:49:19.564Z,30.13
2023-02-08T22:51:23.697Z,29.42
2023-02-08T22:53:26.644Z,27.80
2023-02-08T22:55:28.891Z,28.15
2023-02-08T22:57:32.232Z,30.52
2023-02-08T22:59:34.249Z,28.20
2023-02-08T23:01:36.989Z,25.77
2023-02-08T23:03:39.379Z,32.88
2023-02-08T23:05:43.024Z,28.38
2023-02-08T23:07:45.179Z,26.40
2023-02-08T23:09:47.339Z,29.23
2023-02-08T23:11:49.369Z,28.98
2023-02-08T23:13:51.375Z,31.73
2023-02-08T23:15:53.384Z,30.48
2023-02-08T23:17:55.707Z,28.48
2023-02-08T23:19:57.785Z,28.27
2023-02-08T23:22:00.565Z,31.70
2023-02-08T23:24:02.592Z,30.08
2023-02-08T23:26:07.534Z,28.10
2023-02-08T23:28:11.434Z,27.70
2023-02-08T23:30:13.943Z,29.75
2023-02-08T23:32:15.920Z,32.50
2023-02-08T23:34:19.130Z,31.85
2023-02-08T23:36:23.425Z,30.27
2023-02-08T23:38:25.711Z,29.10
2023-02-08T23:40:27.707Z,28.20
2023-02-08T23:42:29.659Z,29.45
2023-02-08T23:44:31.751Z,30.02
2023-02-08T23:46:33.841Z,28.80
2023-02-08T23:48:38.431Z,31.02
2023-02-08T23:50:41.275Z,34.63
2023-02-08T23:52:43.195Z,28.27
2023-02-08T23:54:45.358Z,32.95
2023-02-08T23:56:47.409Z,32.03
2023-02-08T23:58:51.727Z,31.35
